Time;durP1;ratioP1;P1;durP2;ratioP2;P2;SDS_P1;SDS_P2;PMS_P1;PMS_P2;Temp;Humidity;BMP_temperature;BMP_pressure;BME280_temperature;BME280_humidity;BME280_pressure;Samples;Min_cycle;Max_cycle;Signal;HPM_P1;HPM_P2
2022/04/18 00:02:12;;;;;;;0.10;0.10;;;;;;;;;;5104526;28;20240;-74
2022/04/18 00:04:40;;;;;;;0.10;0.10;;;;;;;;;;5082731;28;20194;-74
2022/04/18 00:07:06;;;;;;;0.10;0.10;;;;;;;;;;5108439;28;20243;-75
2022/04/18 00:09:33;;;;;;;0.10;0.10;;;;;;;;;;5086690;28;20205;-74
2022/04/18 00:11:59;;;;;;;0.10;0.10;;;;;;;;;;5106932;28;20296;-75
2022/04/18 00:14:26;;;;;;;0.10;0.10;;;;;;;;;;5087987;28;20204;-75
2022/04/18 00:16:52;;;;;;;0.10;0.10;;;;;;;;;;5105383;28;20245;-74
2022/04/18 00:19:18;;;;;;;0.20;0.20;;;;;;;;;;5089532;28;20246;-75
2022/04/18 00:21:46;;;;;;;0.83;0.83;;;;;;;;;;5102902;28;20230;-75
2022/04/18 00:24:14;;;;;;;0.10;0.10;;;;;;;;;;5091991;28;20212;-75
2022/04/18 00:26:40;;;;;;;0.10;0.10;;;;;;;;;;5101840;28;20240;-74
2022/04/18 00:29:07;;;;;;;0.10;0.10;;;;;;;;;;5092853;28;20208;-74
2022/04/18 00:31:33;;;;;;;0.10;0.10;;;;;;;;;;5099593;28;20413;-74
2022/04/18 00:33:59;;;;;;;0.20;0.20;;;;;;;;;;5094459;28;20393;-74
2022/04/18 00:36:25;;;;;;;0.10;0.10;;;;;;;;;;5097379;28;20298;-74
2022/04/18 00:38:53;;;;;;;0.10;0.10;;;;;;;;;;5096487;28;20248;-74
2022/04/18 00:41:19;;;;;;;0.10;0.10;;;;;;;;;;5095654;28;20231;-74
2022/04/18 00:43:47;;;;;;;0.10;0.10;;;;;;;;;;5097534;28;20521;-75
2022/04/18 00:46:14;;;;;;;0.10;0.10;;;;;;;;;;5093985;28;20239;-74
2022/04/18 00:48:40;;;;;;;0.10;0.10;;;;;;;;;;5099558;28;20421;-75
2022/04/18 00:51:08;;;;;;;0.10;0.10;;;;;;;;;;5092097;28;20559;-75
2022/04/18 00:53:35;;;;;;;0.10;0.10;;;;;;;;;;5100722;28;20210;-74
2022/04/18 00:56:03;;;;;;;0.10;0.10;;;;;;;;;;5090421;28;20242;-74
2022/04/18 00:58:29;;;;;;;0.10;0.10;;;;;;;;;;5102456;28;20252;-74
2022/04/18 01:00:56;;;;;;;0.10;0.10;;;;;;;;;;5083858;28;20259;-75
2022/04/18 01:03:22;;;;;;;0.10;0.10;;;;;;;;;;5104097;28;20214;-74
2022/04/18 01:05:49;;;;;;;0.10;0.10;;;;;;;;;;5086653;28;20248;-75
2022/04/18 01:08:15;;;;;;;0.10;0.10;;;;;;;;;;5106125;28;20251;-75
2022/04/18 01:10:42;;;;;;;0.10;0.10;;;;;;;;;;5085170;28;20247;-75
2022/04/18 01:13:09;;;;;;;0.10;0.10;;;;;;;;;;5107820;28;20272;-76
2022/04/18 01:15:36;;;;;;;0.10;0.10;;;;;;;;;;5083295;28;20338;-74
2022/04/18 01:18:02;;;;;;;0.10;0.10;;;;;;;;;;5107945;28;20212;-73
2022/04/18 01:20:34;;;;;;;0.43;0.43;;;;;;;;;;5080464;28;20311;-75
2022/04/18 01:23:02;;;;;;;0.10;0.10;;;;;;;;;;5109830;28;20218;-74
2022/04/18 01:30:57;;;;;;;0.20;0.20;;;;;;;;;;5088391;28;20264;-75
2022/04/18 01:33:23;;;;;;;0.10;0.10;;;;;;;;;;5103476;28;20448;-74
2022/04/18 01:35:49;;;;;;;0.10;0.10;;;;;;;;;;5086211;28;20243;-74
2022/04/18 01:38:17;;;;;;;0.10;0.10;;;;;;;;;;5105112;28;20225;-74
2022/04/18 01:40:45;;;;;;;0.77;0.77;;;;;;;;;;5085302;28;20281;-75
2022/04/18 01:43:11;;;;;;;0.10;0.10;;;;;;;;;;5106480;28;20219;-75
2022/04/18 01:45:37;;;;;;;0.10;0.10;;;;;;;;;;5082776;28;20291;-76
2022/04/18 01:48:04;;;;;;;0.10;0.10;;;;;;;;;;5107872;28;20197;-74
2022/04/18 01:50:30;;;;;;;0.10;0.10;;;;;;;;;;5081340;28;20268;-74
2022/04/18 01:52:56;;;;;;;0.10;0.10;;;;;;;;;;5109508;28;20266;-74
2022/04/18 01:55:24;;;;;;;0.10;0.10;;;;;;;;;;5078847;28;20548;-74
2022/04/18 01:57:50;;;;;;;0.10;0.10;;;;;;;;;;5111693;28;20199;-75
2022/04/18 02:00:16;;;;;;;0.10;0.10;;;;;;;;;;5077159;28;20203;-75
2022/04/18 02:02:43;;;;;;;0.10;0.10;;;;;;;;;;5113165;28;20438;-75
2022/04/18 02:05:09;;;;;;;0.10;0.10;;;;;;;;;;5075084;28;20203;-75
2022/04/18 02:07:36;;;;;;;0.10;0.10;;;;;;;;;;5115476;28;20193;-74
2022/04/18 02:10:03;;;;;;;0.10;0.10;;;;;;;;;;5084616;28;20232;-74
2022/04/18 02:12:30;;;;;;;6.47;6.07;;;;;;;;;;5072330;28;20206;-75
2022/04/18 02:14:57;;;;;;;0.10;0.10;;;;;;;;;;5083768;28;20238;-74
2022/04/18 02:17:23;;;;;;;0.10;0.10;;;;;;;;;;5106880;28;20454;-74
2022/04/18 02:19:49;;;;;;;0.10;0.10;;;;;;;;;;5083936;28;20379;-75
2022/04/18 02:22:16;;;;;;;6.27;5.73;;;;;;;;;;5106096;28;20299;-73
2022/04/18 02:24:42;;;;;;;0.10;0.10;;;;;;;;;;5083504;28;20437;-75
2022/04/18 02:27:09;;;;;;;0.10;0.10;;;;;;;;;;5105980;28;20230;-74
2022/04/18 02:29:36;;;;;;;0.10;0.10;;;;;;;;;;5083106;28;20278;-75
2022/04/18 02:34:47;;;;;;;0.10;0.10;;;;;;;;;;5083492;28;20224;-75
2022/04/18 02:37:13;;;;;;;0.10;0.10;;;;;;;;;;5105635;28;20241;-74
2022/04/18 02:39:39;;;;;;;0.10;0.10;;;;;;;;;;5084196;28;20373;-74
2022/04/18 02:42:06;;;;;;;0.10;0.10;;;;;;;;;;5105460;28;20470;-76
2022/04/18 02:44:32;;;;;;;0.10;0.10;;;;;;;;;;5083284;28;20227;-74
2022/04/18 02:47:00;;;;;;;0.10;0.10;;;;;;;;;;5103700;28;20273;-75
2022/04/18 02:49:26;;;;;;;0.10;0.10;;;;;;;;;;5084645;28;20216;-74
2022/04/18 02:51:52;;;;;;;0.10;0.10;;;;;;;;;;5102108;28;20230;-74
2022/04/18 02:54:19;;;;;;;0.10;0.10;;;;;;;;;;5086072;28;20204;-74
2022/04/18 02:56:45;;;;;;;0.10;0.10;;;;;;;;;;5100378;28;20238;-74
2022/04/18 02:59:11;;;;;;;0.10;0.10;;;;;;;;;;5088572;28;20253;-74
2022/04/18 03:01:37;;;;;;;0.10;0.10;;;;;;;;;;5098307;28;20237;-75
2022/04/18 03:04:05;;;;;;;0.10;0.10;;;;;;;;;;5090426;28;20207;-75
2022/04/18 03:06:31;;;;;;;0.10;0.10;;;;;;;;;;5096072;28;20302;-75
2022/04/18 03:08:58;;;;;;;0.10;0.10;;;;;;;;;;5092045;28;20202;-74
2022/04/18 03:11:24;;;;;;;0.10;0.10;;;;;;;;;;5093902;28;20288;-74
2022/04/18 03:13:50;;;;;;;0.10;0.10;;;;;;;;;;5094188;28;20203;-74
2022/04/18 03:16:18;;;;;;;0.10;0.10;;;;;;;;;;5092379;28;20253;-74
2022/04/18 03:18:44;;;;;;;0.10;0.10;;;;;;;;;;5095339;28;20195;-74
2022/04/18 03:21:12;;;;;;;0.10;0.10;;;;;;;;;;5090339;28;20287;-74
2022/04/18 03:23:39;;;;;;;0.10;0.10;;;;;;;;;;5096951;28;20206;-74
2022/04/18 03:26:06;;;;;;;0.10;0.10;;;;;;;;;;5088543;28;20250;-75
2022/04/18 03:28:34;;;;;;;0.10;0.10;;;;;;;;;;5098708;28;20203;-74
2022/04/18 03:31:00;;;;;;;0.10;0.10;;;;;;;;;;5087332;28;20254;-74
2022/04/18 03:33:26;;;;;;;0.10;0.10;;;;;;;;;;5099936;28;20291;-74
2022/04/18 03:41:21;;;;;;;0.10;0.10;;;;;;;;;;5053507;28;20245;-74
2022/04/18 03:43:47;;;;;;;0.10;0.10;;;;;;;;;;5092291;28;20250;-75
2022/04/18 03:46:14;;;;;;;0.10;0.10;;;;;;;;;;5095107;28;20278;-74
2022/04/18 03:48:40;;;;;;;0.20;0.20;;;;;;;;;;5100309;28;20554;-73
2022/04/18 03:51:06;;;;;;;0.10;0.10;;;;;;;;;;5092807;28;20245;-74
2022/04/18 03:53:33;;;;;;;0.10;0.10;;;;;;;;;;5102235;28;20248;-73
2022/04/18 03:56:00;;;;;;;0.10;0.10;;;;;;;;;;5090973;28;20305;-74
2022/04/18 03:58:27;;;;;;;0.10;0.10;;;;;;;;;;5104333;28;20272;-74
2022/04/18 04:00:53;;;;;;;0.10;0.10;;;;;;;;;;5089260;28;20245;-74
2022/04/18 04:03:19;;;;;;;0.10;0.10;;;;;;;;;;5105524;28;20230;-75
2022/04/18 04:05:45;;;;;;;0.10;0.10;;;;;;;;;;5087131;28;20282;-75
2022/04/18 04:08:12;;;;;;;0.10;0.10;;;;;;;;;;5107966;28;20254;-75
2022/04/18 04:10:38;;;;;;;0.20;0.20;;;;;;;;;;5084850;28;20238;-75
2022/04/18 04:13:06;;;;;;;0.10;0.10;;;;;;;;;;5110128;28;20233;-74
2022/04/18 04:15:32;;;;;;;0.10;0.10;;;;;;;;;;5083578;28;20534;-74
2022/04/18 04:18:01;;;;;;;0.10;0.10;;;;;;;;;;5110957;28;20439;-74
2022/04/18 04:20:27;;;;;;;0.10;0.10;;;;;;;;;;5081981;28;20242;-74
2022/04/18 04:22:54;;;;;;;0.10;0.10;;;;;;;;;;5112416;28;20227;-74
2022/04/18 04:25:20;;;;;;;0.10;0.10;;;;;;;;;;5079847;28;20252;-73
2022/04/18 04:27:46;;;;;;;0.13;0.13;;;;;;;;;;5114624;28;20191;-73
2022/04/18 04:30:14;;;;;;;0.10;0.10;;;;;;;;;;5077590;28;20207;-74
2022/04/18 04:32:40;;;;;;;0.10;0.10;;;;;;;;;;5116763;28;20188;-74
2022/04/18 04:35:06;;;;;;;0.10;0.10;;;;;;;;;;5075838;28;20206;-75
2022/04/18 04:37:33;;;;;;;0.10;0.10;;;;;;;;;;5117717;28;20272;-74
2022/04/18 04:39:59;;;;;;;0.13;0.13;;;;;;;;;;5086092;28;20204;-73
2022/04/18 04:42:25;;;;;;;0.10;0.10;;;;;;;;;;5107849;28;20233;-74
2022/04/18 04:44:51;;;;;;;0.10;0.10;;;;;;;;;;5085880;28;20272;-74
2022/04/18 04:47:19;;;;;;;0.10;0.10;;;;;;;;;;5108296;28;20247;-75
2022/04/18 04:49:45;;;;;;;0.10;0.10;;;;;;;;;;5085760;28;20241;-74
2022/04/18 04:52:12;;;;;;;0.10;0.10;;;;;;;;;;5107735;28;20322;-75
2022/04/18 04:54:40;;;;;;;0.20;0.20;;;;;;;;;;5086121;28;20211;-74
2022/04/18 04:57:06;;;;;;;0.10;0.10;;;;;;;;;;5107907;28;20329;-74
2022/04/18 04:59:32;;;;;;;0.10;0.10;;;;;;;;;;5085871;28;20278;-74
2022/04/18 05:01:58;;;;;;;0.10;0.10;;;;;;;;;;5105961;28;20444;-73
2022/04/18 05:04:27;;;;;;;0.50;0.50;;;;;;;;;;5087186;28;20244;-73
2022/04/18 05:06:53;;;;;;;0.10;0.10;;;;;;;;;;5104530;28;20241;-73
2022/04/18 05:09:20;;;;;;;0.10;0.10;;;;;;;;;;5088583;28;20506;-73
2022/04/18 05:11:46;;;;;;;0.10;0.10;;;;;;;;;;5102516;28;20237;-73
2022/04/18 05:14:13;;;;;;;0.10;0.10;;;;;;;;;;5090423;28;20255;-74
2022/04/18 05:16:40;;;;;;;0.10;0.10;;;;;;;;;;5100447;28;20279;-74
2022/04/18 05:19:06;;;;;;;0.10;0.10;;;;;;;;;;5091931;28;20324;-75
2022/04/18 05:21:34;;;;;;;0.10;0.10;;;;;;;;;;5098457;28;20309;-74
2022/04/18 05:24:01;;;;;;;0.10;0.10;;;;;;;;;;5093750;28;20429;-73
2022/04/18 05:26:30;;;;;;;0.17;0.17;;;;;;;;;;5097443;28;20237;-73
2022/04/18 05:28:57;;;;;;;0.10;0.10;;;;;;;;;;5094439;28;20431;-74
2022/04/18 05:31:23;;;;;;;0.10;0.10;;;;;;;;;;5096263;28;20245;-74
2022/04/18 05:33:49;;;;;;;0.10;0.10;;;;;;;;;;5096739;28;20245;-74
2022/04/18 05:36:16;;;;;;;0.10;0.10;;;;;;;;;;5094186;28;20264;-74
2022/04/18 05:38:43;;;;;;;0.10;0.10;;;;;;;;;;5098598;28;20213;-74
2022/04/18 05:41:09;;;;;;;0.10;0.10;;;;;;;;;;5092214;28;20241;-74
2022/04/18 05:43:36;;;;;;;0.10;0.10;;;;;;;;;;5100059;28;20231;-74
2022/04/18 05:46:02;;;;;;;0.10;0.10;;;;;;;;;;5089989;28;20498;-74
2022/04/18 05:48:28;;;;;;;0.10;0.10;;;;;;;;;;5101857;28;20195;-73
2022/04/18 05:50:54;;;;;;;0.10;0.10;;;;;;;;;;5087400;28;20316;-73
2022/04/18 05:53:24;;;;;;;0.10;0.10;;;;;;;;;;5103771;28;20416;-74
2022/04/18 05:55:52;;;;;;;0.10;0.10;;;;;;;;;;5086484;28;20259;-74
2022/04/18 05:58:18;;;;;;;0.10;0.10;;;;;;;;;;5104409;28;20417;-73
2022/04/18 06:00:44;;;;;;;0.10;0.10;;;;;;;;;;5083652;28;20282;-74
2022/04/18 06:03:11;;;;;;;0.10;0.10;;;;;;;;;;5106397;28;20225;-74
2022/04/18 06:05:38;;;;;;;0.10;0.10;;;;;;;;;;5082962;28;20240;-73
2022/04/18 06:08:05;;;;;;;0.10;0.10;;;;;;;;;;5107606;28;20207;-74
2022/04/18 06:10:31;;;;;;;0.10;0.10;;;;;;;;;;5081198;28;20241;-73
2022/04/18 06:12:59;;;;;;;0.10;0.10;;;;;;;;;;5109086;28;20195;-74
2022/04/18 06:15:25;;;;;;;0.10;0.10;;;;;;;;;;5079056;28;20258;-74
2022/04/18 06:17:51;;;;;;;0.10;0.10;;;;;;;;;;5111499;28;20206;-74
2022/04/18 06:20:19;;;;;;;0.10;0.10;;;;;;;;;;5076988;28;20196;-73
2022/04/18 06:22:45;;;;;;;0.10;0.10;;;;;;;;;;5112541;28;20251;-75
2022/04/18 06:25:12;;;;;;;0.10;0.10;;;;;;;;;;5075359;28;20380;-74
2022/04/18 06:27:38;;;;;;;0.10;0.10;;;;;;;;;;5114609;28;20195;-73
2022/04/18 06:30:06;;;;;;;0.10;0.10;;;;;;;;;;5083770;28;20199;-74
2022/04/18 06:32:38;;;;;;;0.10;0.10;;;;;;;;;;5072528;28;20207;-74
2022/04/18 06:35:05;;;;;;;0.10;0.10;;;;;;;;;;5082205;28;20387;-75
2022/04/18 06:37:32;;;;;;;0.10;0.10;;;;;;;;;;5115647;28;20235;-74
2022/04/18 06:39:59;;;;;;;0.10;0.10;;;;;;;;;;5083506;28;20249;-73
2022/04/18 06:42:25;;;;;;;0.10;0.10;;;;;;;;;;5105493;28;20263;-74
2022/04/18 06:44:51;;;;;;;0.10;0.10;;;;;;;;;;5083629;28;20274;-74
2022/04/18 06:47:19;;;;;;;0.10;0.10;;;;;;;;;;5105783;28;20263;-73
2022/04/18 06:49:47;;;;;;;0.10;0.10;;;;;;;;;;5083436;28;20208;-74
2022/04/18 06:52:14;;;;;;;0.10;0.10;;;;;;;;;;5105830;28;20334;-74
2022/04/18 06:54:40;;;;;;;0.10;0.10;;;;;;;;;;5083525;28;20242;-74
2022/04/18 06:57:05;;;;;;;0.10;0.10;;;;;;;;;;5105424;28;20242;-74
2022/04/18 06:59:32;;;;;;;0.10;0.10;;;;;;;;;;5083247;28;20545;-74
2022/04/18 07:01:59;;;;;;;0.10;0.10;;;;;;;;;;5102091;28;20235;-74
2022/04/18 07:04:26;;;;;;;0.10;0.10;;;;;;;;;;5085257;28;20273;-73
2022/04/18 07:06:53;;;;;;;0.10;0.10;;;;;;;;;;5101887;28;20442;-73
2022/04/18 07:09:19;;;;;;;0.10;0.10;;;;;;;;;;5086039;28;20205;-74
2022/04/18 07:11:46;;;;;;;0.10;0.10;;;;;;;;;;5100194;28;20456;-74
2022/04/18 07:14:13;;;;;;;0.10;0.10;;;;;;;;;;5088004;28;20207;-73
2022/04/18 07:16:39;;;;;;;0.10;0.10;;;;;;;;;;5097656;28;20268;-74
2022/04/18 07:19:05;;;;;;;0.10;0.10;;;;;;;;;;5089600;28;20247;-74
2022/04/18 07:21:33;;;;;;;0.10;0.10;;;;;;;;;;5095950;28;20251;-74
2022/04/18 07:23:59;;;;;;;0.10;0.10;;;;;;;;;;5091813;28;20237;-73
2022/04/18 07:26:25;;;;;;;0.00;0.00;;;;;;;;;;5093813;28;20247;-74
2022/04/18 07:28:53;;;;;;;0.10;0.10;;;;;;;;;;5093358;28;20198;-74
2022/04/18 07:31:19;;;;;;;0.10;0.10;;;;;;;;;;5092662;28;20483;-74
2022/04/18 07:33:45;;;;;;;0.10;0.10;;;;;;;;;;5095154;28;20199;-75
2022/04/18 07:36:12;;;;;;;0.10;0.10;;;;;;;;;;5090241;28;20271;-74
2022/04/18 07:38:53;;;;;;;0.10;0.10;;;;;;;;;;5097372;28;20210;-74
2022/04/18 07:41:20;;;;;;;0.10;0.10;;;;;;;;;;5092818;28;20328;-74
2022/04/18 07:43:47;;;;;;;0.10;0.10;;;;;;;;;;5094258;28;20282;-73
2022/04/18 07:46:15;;;;;;;0.10;0.10;;;;;;;;;;5090228;28;20307;-74
2022/04/18 07:48:42;;;;;;;0.10;0.10;;;;;;;;;;5096224;28;20252;-74
2022/04/18 07:53:53;;;;;;;0.10;0.10;;;;;;;;;;5092927;28;20251;-70
2022/04/18 07:56:20;;;;;;;0.10;0.10;;;;;;;;;;5092519;28;20239;-70
2022/04/18 07:58:46;;;;;;;0.10;0.10;;;;;;;;;;5094628;28;20351;-68
2022/04/18 08:01:13;;;;;;;0.07;0.07;;;;;;;;;;5090432;28;20293;-65
2022/04/18 08:03:39;;;;;;;0.10;0.10;;;;;;;;;;5096612;28;20263;-71
2022/04/18 08:06:05;;;;;;;0.10;0.10;;;;;;;;;;5088080;28;20498;-74
2022/04/18 08:08:32;;;;;;;0.10;0.10;;;;;;;;;;5098591;28;20243;-68
2022/04/18 08:11:00;;;;;;;0.10;0.10;;;;;;;;;;5085991;28;20285;-68
2022/04/18 08:13:26;;;;;;;0.10;0.10;;;;;;;;;;5100319;28;20222;-68
2022/04/18 08:15:52;;;;;;;0.10;0.10;;;;;;;;;;5084744;28;20263;-69
2022/04/18 08:18:19;;;;;;;0.10;0.10;;;;;;;;;;5101700;28;20359;-68
2022/04/18 08:20:45;;;;;;;0.00;0.00;;;;;;;;;;5082582;28;20305;-69
2022/04/18 08:23:11;;;;;;;0.10;0.10;;;;;;;;;;5103615;28;20339;-69
2022/04/18 08:25:38;;;;;;;0.10;0.10;;;;;;;;;;5080834;28;20500;-69
2022/04/18 08:28:06;;;;;;;0.10;0.10;;;;;;;;;;5109068;28;20201;-68
2022/04/18 08:30:32;;;;;;;0.10;0.10;;;;;;;;;;5083069;28;20240;-71
2022/04/18 08:32:58;;;;;;;0.10;0.10;;;;;;;;;;5111228;28;20195;-74
2022/04/18 08:35:24;;;;;;;0.00;0.00;;;;;;;;;;5080385;28;20206;-69
2022/04/18 08:37:51;;;;;;;0.10;0.10;;;;;;;;;;5113061;28;20294;-68
2022/04/18 08:40:17;;;;;;;0.10;0.10;;;;;;;;;;5078331;28;20214;-69
2022/04/18 08:42:44;;;;;;;0.10;0.10;;;;;;;;;;5114516;28;20394;-69
2022/04/18 08:45:13;;;;;;;0.10;0.10;;;;;;;;;;5076520;28;20228;-70
2022/04/18 08:53:09;;;;;;;0.10;0.10;;;;;;;;;;5107878;28;20217;-68
2022/04/18 08:55:35;;;;;;;0.10;0.10;;;;;;;;;;5082943;28;20235;-72
2022/04/18 08:58:02;;;;;;;0.10;0.10;;;;;;;;;;5109691;28;20212;-68
2022/04/18 09:00:29;;;;;;;0.00;0.00;;;;;;;;;;5081260;28;20241;-68
2022/04/18 09:02:56;;;;;;;0.00;0.00;;;;;;;;;;5111708;28;20202;-75
2022/04/18 09:05:22;;;;;;;0.00;0.00;;;;;;;;;;5079374;28;20228;-73
2022/04/18 09:07:58;;;;;;;0.00;0.00;;;;;;;;;;5113234;28;20194;-77
2022/04/18 09:10:24;;;;;;;0.00;0.00;;;;;;;;;;5080435;28;20202;-78
2022/04/18 09:12:51;;;;;;;0.00;0.00;;;;;;;;;;5113258;28;20202;-79
2022/04/18 09:15:29;;;;;;;0.10;0.10;;;;;;;;;;5078491;28;20357;-78
2022/04/18 09:18:06;;;;;;;0.00;0.00;;;;;;;;;;5111677;28;20253;-78
2022/04/18 09:20:40;;;;;;;0.10;0.10;;;;;;;;;;5082692;28;20244;-79
2022/04/18 09:23:06;;;;;;;0.00;0.00;;;;;;;;;;5108909;28;20499;-75
2022/04/18 09:25:37;;;;;;;0.10;0.10;;;;;;;;;;5082664;28;20242;-78
2022/04/18 09:28:04;;;;;;;0.10;0.10;;;;;;;;;;5109574;28;20192;-79
2022/04/18 09:30:32;;;;;;;0.00;0.00;;;;;;;;;;5082722;28;20422;-80
2022/04/18 09:33:02;;;;;;;0.00;0.00;;;;;;;;;;5111031;28;20194;-81
2022/04/18 09:35:30;;;;;;;0.00;0.00;;;;;;;;;;5080353;28;20235;-77
2022/04/18 09:38:00;;;;;;;0.00;0.00;;;;;;;;;;5110393;28;20227;-72
2022/04/18 09:40:27;;;;;;;0.00;0.00;;;;;;;;;;5080137;28;20456;-70
2022/04/18 09:42:54;;;;;;;0.00;0.00;;;;;;;;;;5110616;28;20245;-71
2022/04/18 09:45:20;;;;;;;5.25;5.05;;;;;;;;;;5077841;28;20229;-68
2022/04/18 09:47:55;;;;;;;0.10;0.10;;;;;;;;;;5112575;28;20216;-71
2022/04/18 09:53:08;;;;;;;0.10;0.10;;;;;;;;;;5107498;28;20261;-78
2022/04/18 09:55:36;;;;;;;0.00;0.00;;;;;;;;;;5079305;28;20239;-73
2022/04/18 09:58:02;;;;;;;0.00;0.00;;;;;;;;;;5108409;28;20202;-74
2022/04/18 10:00:29;;;;;;;0.00;0.00;;;;;;;;;;5080578;28;20240;-76
2022/04/18 10:02:55;;;;;;;0.10;0.10;;;;;;;;;;5111478;28;20252;-76
2022/04/18 10:05:23;;;;;;;0.00;0.00;;;;;;;;;;5078963;28;20538;-80
2022/04/18 10:07:50;;;;;;;0.00;0.00;;;;;;;;;;5113094;28;20273;-81
2022/04/18 10:10:19;;;;;;;0.08;0.08;;;;;;;;;;5077422;28;20291;-77
2022/04/18 10:12:45;;;;;;;0.00;0.00;;;;;;;;;;5112751;28;20218;-72
2022/04/18 10:15:11;;;;;;;0.00;0.00;;;;;;;;;;5075424;28;20222;-71
2022/04/18 10:17:39;;;;;;;0.00;0.00;;;;;;;;;;5114030;28;20442;-70
2022/04/18 10:20:15;;;;;;;0.00;0.00;;;;;;;;;;5077918;28;20406;-71
2022/04/18 10:22:56;;;;;;;0.10;0.10;;;;;;;;;;5083578;28;20226;-69
2022/04/18 10:25:33;;;;;;;0.00;0.00;;;;;;;;;;5055743;28;20266;-70
2022/04/18 10:28:05;;;;;;;0.00;0.00;;;;;;;;;;5108715;28;20233;-71
2022/04/18 10:30:33;;;;;;;0.00;0.00;;;;;;;;;;5080029;28;20514;-71
2022/04/18 10:33:00;;;;;;;0.00;0.00;;;;;;;;;;5108560;28;20204;-71
2022/04/18 10:35:26;;;;;;;0.00;0.00;;;;;;;;;;5078941;28;20247;-71
2022/04/18 10:37:53;;;;;;;0.00;0.00;;;;;;;;;;5110380;28;20265;-70
2022/04/18 10:40:19;;;;;;;0.00;0.00;;;;;;;;;;5076878;28;20210;-70
2022/04/18 10:42:47;;;;;;;0.00;0.00;;;;;;;;;;5112247;28;20217;-69
2022/04/18 10:45:15;;;;;;;0.00;0.00;;;;;;;;;;5074856;28;20260;-70
2022/04/18 10:48:00;;;;;;;0.00;0.00;;;;;;;;;;5113440;28;20427;-68
2022/04/18 10:50:27;;;;;;;0.00;0.00;;;;;;;;;;5078568;28;20464;-68
2022/04/18 10:53:10;;;;;;;0.00;0.00;;;;;;;;;;5109641;28;20410;-68
2022/04/18 10:55:38;;;;;;;0.00;0.00;;;;;;;;;;5081356;28;20312;-69
2022/04/18 10:58:13;;;;;;;0.00;0.00;;;;;;;;;;5106485;28;20211;-69
2022/04/18 11:00:49;;;;;;;0.00;0.00;;;;;;;;;;5081633;28;20238;-69
2022/04/18 11:03:15;;;;;;;0.00;0.00;;;;;;;;;;5103646;28;20245;-70
2022/04/18 11:05:41;;;;;;;0.00;0.00;;;;;;;;;;5082680;28;20278;-68
2022/04/18 11:08:22;;;;;;;0.00;0.00;;;;;;;;;;5105339;28;20503;-68
2022/04/18 11:10:48;;;;;;;0.00;0.00;;;;;;;;;;5083947;28;20249;-69
2022/04/18 11:13:16;;;;;;;0.00;0.00;;;;;;;;;;5103860;28;20234;-69
2022/04/18 11:15:42;;;;;;;0.00;0.00;;;;;;;;;;5082568;28;20286;-68
2022/04/18 11:18:09;;;;;;;0.00;0.00;;;;;;;;;;5105123;28;20275;-69
2022/04/18 11:20:36;;;;;;;0.00;0.00;;;;;;;;;;5080477;28;20237;-69
2022/04/18 11:23:21;;;;;;;0.00;0.00;;;;;;;;;;5106978;28;20223;-68
2022/04/18 11:25:54;;;;;;;0.00;0.00;;;;;;;;;;5083784;28;20242;-68
2022/04/18 11:28:23;;;;;;;0.00;0.00;;;;;;;;;;5101664;28;20210;-69
2022/04/18 11:30:50;;;;;;;0.03;0.03;;;;;;;;;;5084186;28;20610;-69
2022/04/18 11:33:16;;;;;;;0.00;0.00;;;;;;;;;;5103201;28;20204;-69
2022/04/18 11:35:43;;;;;;;0.00;0.00;;;;;;;;;;5082254;28;20240;-69
2022/04/18 11:38:13;;;;;;;0.00;0.00;;;;;;;;;;5105024;28;20376;-69
2022/04/18 11:40:40;;;;;;;0.10;0.10;;;;;;;;;;5081338;28;20331;-69
2022/04/18 11:43:10;;;;;;;0.00;0.00;;;;;;;;;;5105615;28;20259;-68
2022/04/18 11:45:41;;;;;;;0.00;0.00;;;;;;;;;;5081095;28;20238;-68
2022/04/18 11:48:07;;;;;;;0.00;0.00;;;;;;;;;;5105621;28;20353;-68
2022/04/18 11:50:36;;;;;;;0.00;0.00;;;;;;;;;;5079841;28;20239;-69
2022/04/18 11:53:03;;;;;;;0.00;0.00;;;;;;;;;;5106409;28;20205;-68
2022/04/18 11:55:30;;;;;;;0.00;0.00;;;;;;;;;;5078706;28;20280;-68
2022/04/18 11:57:57;;;;;;;0.10;0.10;;;;;;;;;;5108306;28;20275;-68
2022/04/18 12:08:35;;;;;;;0.00;0.00;;;;;;;;;;5101596;28;20235;-68
2022/04/18 12:11:01;;;;;;;0.00;0.00;;;;;;;;;;5091186;28;20244;-69
2022/04/18 12:13:38;;;;;;;0.00;0.00;;;;;;;;;;5103645;28;20244;-68
2022/04/18 12:16:05;;;;;;;0.00;0.00;;;;;;;;;;5091307;28;20254;-69
2022/04/18 12:18:33;;;;;;;0.00;0.00;;;;;;;;;;5102382;28;20206;-68
2022/04/18 12:21:00;;;;;;;0.08;0.08;;;;;;;;;;5090494;28;20326;-68
2022/04/18 12:23:26;;;;;;;0.00;0.00;;;;;;;;;;5103767;28;20212;-68
2022/04/18 12:25:53;;;;;;;0.00;0.00;;;;;;;;;;5088778;28;20239;-68
2022/04/18 12:28:20;;;;;;;0.00;0.00;;;;;;;;;;5105234;28;20223;-69
2022/04/18 12:30:47;;;;;;;0.00;0.00;;;;;;;;;;5086729;28;20441;-69
2022/04/18 12:33:14;;;;;;;0.00;0.00;;;;;;;;;;5106611;28;20354;-68
2022/04/18 12:35:42;;;;;;;0.10;0.10;;;;;;;;;;5084721;28;20243;-69
2022/04/18 12:38:09;;;;;;;0.00;0.00;;;;;;;;;;5108455;28;20296;-68
2022/04/18 12:40:36;;;;;;;0.08;0.08;;;;;;;;;;5083755;28;20285;-68
2022/04/18 12:43:07;;;;;;;0.00;0.00;;;;;;;;;;5109371;28;20213;-68
2022/04/18 12:45:57;;;;;;;0.00;0.00;;;;;;;;;;5082864;28;20288;-68
2022/04/18 12:48:24;;;;;;;0.00;0.00;;;;;;;;;;5088563;28;20205;-68
2022/04/18 12:50:55;;;;;;;0.10;0.10;;;;;;;;;;5087211;28;20245;-68
2022/04/18 12:53:21;;;;;;;0.00;0.00;;;;;;;;;;5104660;28;20202;-69
2022/04/18 12:56:04;;;;;;;0.00;0.00;;;;;;;;;;5083442;28;20516;-69
2022/04/18 12:58:37;;;;;;;0.00;0.00;;;;;;;;;;5102072;28;20212;-69
2022/04/18 13:01:05;;;;;;;0.00;0.00;;;;;;;;;;5090759;28;20304;-68
2022/04/18 13:03:40;;;;;;;0.00;0.00;;;;;;;;;;5101251;28;20560;-68
2022/04/18 13:06:08;;;;;;;0.10;0.10;;;;;;;;;;5091496;28;20317;-68
2022/04/18 13:08:37;;;;;;;0.00;0.00;;;;;;;;;;5100678;28;20281;-68
2022/04/18 13:11:03;;;;;;;0.00;0.00;;;;;;;;;;5090363;28;20278;-67
2022/04/18 13:13:29;;;;;;;0.00;0.00;;;;;;;;;;5101764;28;20390;-69
2022/04/18 13:15:55;;;;;;;0.10;0.10;;;;;;;;;;5088163;28;20243;-68
2022/04/18 13:18:25;;;;;;;0.10;0.10;;;;;;;;;;5103821;28;20249;-68
2022/04/18 13:20:52;;;;;;;0.00;0.00;;;;;;;;;;5087151;28;20292;-69
2022/04/18 13:23:19;;;;;;;0.10;0.10;;;;;;;;;;5104812;28;20205;-68
2022/04/18 13:25:46;;;;;;;0.10;0.10;;;;;;;;;;5085854;28;20238;-70
2022/04/18 13:28:15;;;;;;;0.00;0.00;;;;;;;;;;5105976;28;20204;-68
2022/04/18 13:30:41;;;;;;;0.00;0.00;;;;;;;;;;5084285;28;20262;-68
2022/04/18 13:33:08;;;;;;;0.00;0.00;;;;;;;;;;5107105;28;20208;-68
2022/04/18 13:36:30;;;;;;;0.00;0.00;;;;;;;;;;5082135;28;20589;-69
2022/04/18 13:38:27;;;;;;;0.00;0.00;;;;;;;;;;5102917;28;20221;-68
2022/04/18 13:40:54;;;;;;;0.00;0.00;;;;;;;;;;5087026;28;20241;-69
2022/04/18 13:43:20;;;;;;;0.10;0.10;;;;;;;;;;5103565;28;20457;-67
2022/04/18 13:45:46;;;;;;;0.00;0.00;;;;;;;;;;5085036;28;20237;-70
2022/04/18 13:48:14;;;;;;;0.00;0.00;;;;;;;;;;5105311;28;20211;-69
2022/04/18 13:50:41;;;;;;;0.03;0.03;;;;;;;;;;5084010;28;20475;-68
2022/04/18 13:53:09;;;;;;;0.00;0.00;;;;;;;;;;5106748;28;20211;-68
2022/04/18 13:55:39;;;;;;;0.03;0.03;;;;;;;;;;5081748;28;20485;-69
2022/04/18 13:58:11;;;;;;;0.03;0.03;;;;;;;;;;5107448;28;20276;-67
2022/04/18 14:00:37;;;;;;;0.00;0.00;;;;;;;;;;5082033;28;20243;-69
2022/04/18 14:03:04;;;;;;;0.10;0.10;;;;;;;;;;5107646;28;20277;-69
2022/04/18 14:05:30;;;;;;;0.10;0.10;;;;;;;;;;5080618;28;20237;-69
2022/04/18 14:07:56;;;;;;;0.00;0.00;;;;;;;;;;5109937;28;20211;-68
2022/04/18 14:10:23;;;;;;;0.00;0.00;;;;;;;;;;5077497;28;20206;-69
2022/04/18 14:12:50;;;;;;;0.10;0.10;;;;;;;;;;5111861;28;20228;-69
2022/04/18 14:20:45;;;;;;;0.00;0.00;;;;;;;;;;5084572;28;20287;-69
2022/04/18 14:23:11;;;;;;;0.05;0.05;;;;;;;;;;5105210;28;20208;-68
2022/04/18 14:25:38;;;;;;;0.00;0.00;;;;;;;;;;5080771;28;20425;-68
2022/04/18 14:28:06;;;;;;;0.10;0.10;;;;;;;;;;5107749;28;20528;-69
2022/04/18 14:30:33;;;;;;;0.00;0.00;;;;;;;;;;5079414;28;20514;-69
2022/04/18 14:32:59;;;;;;;0.10;0.10;;;;;;;;;;5109121;28;20206;-68
2022/04/18 14:35:26;;;;;;;0.03;0.03;;;;;;;;;;5078721;28;20233;-68
2022/04/18 14:37:52;;;;;;;0.10;0.10;;;;;;;;;;5110455;28;20291;-69
2022/04/18 14:40:18;;;;;;;0.00;0.00;;;;;;;;;;5076450;28;20200;-68
2022/04/18 14:42:45;;;;;;;0.00;0.00;;;;;;;;;;5111817;28;20216;-68
2022/04/18 14:45:12;;;;;;;0.00;0.00;;;;;;;;;;5074424;28;20427;-68
2022/04/18 14:47:38;;;;;;;0.00;0.00;;;;;;;;;;5114167;28;20217;-68
2022/04/18 14:50:06;;;;;;;0.10;0.10;;;;;;;;;;5080089;28;20226;-70
2022/04/18 14:52:32;;;;;;;0.10;0.10;;;;;;;;;;5115530;28;20251;-69
2022/04/18 14:54:58;;;;;;;0.00;0.00;;;;;;;;;;5083052;28;20216;-70
2022/04/18 14:57:25;;;;;;;0.00;0.00;;;;;;;;;;5105475;28;20251;-68
2022/04/18 14:59:51;;;;;;;0.10;0.10;;;;;;;;;;5083120;28;20204;-69
2022/04/18 15:02:20;;;;;;;0.00;0.00;;;;;;;;;;5105622;28;20575;-68
2022/04/18 15:04:49;;;;;;;0.00;0.00;;;;;;;;;;5083163;28;20351;-68
2022/04/18 15:07:16;;;;;;;0.05;0.05;;;;;;;;;;5105366;28;20508;-68
2022/04/18 15:09:42;;;;;;;0.10;0.10;;;;;;;;;;5082677;28;20246;-69
2022/04/18 15:12:09;;;;;;;0.08;0.08;;;;;;;;;;5105393;28;20281;-69
2022/04/18 15:14:35;;;;;;;0.00;0.00;;;;;;;;;;5083000;28;20196;-67
2022/04/18 15:17:02;;;;;;;0.10;0.10;;;;;;;;;;5103987;28;20239;-69
2022/04/18 15:19:29;;;;;;;0.00;0.00;;;;;;;;;;5084549;28;20244;-69
2022/04/18 15:21:56;;;;;;;0.00;0.00;;;;;;;;;;5102467;28;20621;-69
2022/04/18 15:24:26;;;;;;;0.10;0.10;;;;;;;;;;5085521;28;20208;-70